Ce_breeze — ELSQ7 — position and weather

sailwx.info

Track history (hours):
 
Tides and Currents Weather Stations Pressure Air Temp Water Temp Dewpoint Dewpoint Depression Visibility Wind Speed Wind Dir Waves Ship Positions

Ce_breeze

Last reported at 2014-Oct-24 15:33 UTC. Time now 2014-Nov-01 08:54 UTC.
Position N 34°28' E 033°31'.

Length 240 m; draft 8 m.

Type: Tanker. MMSI: 636010400.

Date/timePositionNaut miles runAvg speedWind from/ knotsBaromVisibWave heightAir tempDewpointWater temp
2014-Oct-24 15:33N 34°28' E 033°31'  
2014-Oct-21 05:11N 35°40' E 026°00'812.7
2014-Oct-21 04:33N 35°45' E 025°52'1312.9
2014-Oct-21 03:33N 35°51' E 025°38'1313.1
2014-Oct-21 02:33N 35°59' E 025°24'1313.0
2014-Oct-21 01:33N 36°06' E 025°11'1313.3
2014-Oct-21 00:33N 36°13' E 024°57'1413.5
2014-Oct-20 23:33N 36°20' E 024°43'1313.4
2014-Oct-20 22:33N 36°27' E 024°29'1312.8
2014-Oct-20 21:33N 36°34' E 024°15'1313.0
2014-Oct-20 20:33N 36°46' E 024°09'1313.2
2014-Oct-20 19:33N 36°58' E 024°02'3213.0
2014-Oct-20 17:07N 37°27' E 023°49'713.1
2014-Oct-20 16:33N 37°34' E 023°44'1211.8
2014-Oct-20 15:33N 37°45' E 023°39'8 8.0
2014-Oct-20 14:33N 37°50' E 023°31'0 0.3
2014-Oct-20 13:32N 37°50' E 023°31'0 0.0
2014-Oct-20 12:32N 37°50' E 023°31'0 0.0
2014-Oct-20 11:32N 37°50' E 023°31'0 0.0
2014-Oct-20 10:32N 37°50' E 023°31'0 0.2
2014-Oct-20 09:32N 37°50' E 023°31'0 0.5
2014-Oct-20 08:33N 37°50' E 023°31'5 5.4
2014-Oct-20 07:33N 37°54' E 023°36'7 7.2
2014-Oct-20 06:33N 38°01' E 023°34'2 1.6
2014-Oct-20 05:32N 38°01' E 023°36'0 0.0
2014-Oct-20 04:29N 38°01' E 023°36'0 0.0
2014-Oct-20 03:32N 38°01' E 023°36'0 0.0
2014-Oct-20 02:32N 38°01' E 023°36'0 0.0
2014-Oct-20 01:32N 38°01' E 023°36'0 0.0
2014-Oct-20 00:29N 38°01' E 023°36'0 0.0
2014-Oct-19 23:32N 38°01' E 023°36'0 0.0
2014-Oct-19 22:32N 38°01' E 023°36'0 0.0
2014-Oct-19 21:32N 38°01' E 023°36'0 0.0
2014-Oct-19 20:32N 38°01' E 023°36'0 0.0
2014-Oct-19 19:32N 38°01' E 023°36'0 0.0
2014-Oct-19 18:32N 38°01' E 023°36'0 0.0
2014-Oct-19 17:32N 38°01' E 023°36'0 0.0
2014-Oct-19 16:32N 38°01' E 023°36'0 0.0
2014-Oct-19 15:29N 38°01' E 023°36'0 0.0
2014-Oct-19 14:32N 38°01' E 023°36'0 0.0
2014-Oct-19 13:32N 38°01' E 023°36'0 0.0
2014-Oct-19 12:32N 38°01' E 023°36'0 0.0
2014-Oct-19 11:32N 38°01' E 023°36'0 0.0
2014-Oct-19 10:32N 38°01' E 023°36'0 0.0
2014-Oct-19 09:32N 38°01' E 023°36'0 0.0
2014-Oct-19 08:29N 38°01' E 023°36'0 0.0
2014-Oct-19 07:29N 38°01' E 023°36'0 0.0
2014-Oct-19 06:32N 38°01' E 023°36'0 0.0
2014-Oct-19 05:32N 38°01' E 023°36'0 0.0
2014-Oct-19 04:32N 38°01' E 023°36'0 0.0
2014-Oct-19 03:32N 38°01' E 023°36'0 0.0
2014-Oct-19 02:32N 38°01' E 023°36'0 0.0
2014-Oct-19 01:32N 38°01' E 023°36'0 0.0
2014-Oct-19 00:26N 38°01' E 023°36'0 0.0
2014-Oct-18 23:32N 38°01' E 023°36'0 0.0
2014-Oct-18 22:32N 38°01' E 023°36'0 0.0
2014-Oct-18 21:32N 38°01' E 023°36'0 0.0
2014-Oct-18 20:26N 38°01' E 023°36'0 0.0
2014-Oct-18 19:32N 38°01' E 023°36'0 0.0
2014-Oct-18 18:32N 38°01' E 023°36'0 0.0
2014-Oct-18 17:29N 38°01' E 023°36'0 0.0
2014-Oct-18 16:32N 38°01' E 023°36'0 0.0
2014-Oct-18 15:32N 38°01' E 023°36'0 0.0
2014-Oct-18 14:32N 38°01' E 023°36'0 0.0
2014-Oct-18 13:32N 38°01' E 023°36'0 0.0
2014-Oct-18 12:32N 38°01' E 023°36'0 0.0
2014-Oct-18 11:32N 38°01' E 023°36'0 0.0
2014-Oct-18 10:32N 38°01' E 023°36'0 0.0
2014-Oct-18 09:34N 38°01' E 023°36'0 0.2
2014-Oct-18 08:34N 38°01' E 023°35'4 4.1
2014-Oct-18 07:34N 37°58' E 023°33'6 5.6
2014-Oct-18 06:34N 37°54' E 023°38'2 2.1
2014-Oct-18 05:34N 37°52' E 023°39'7 7.4
2014-Oct-18 04:34N 37°45' E 023°42'10 9.5
2014-Oct-18 03:33N 37°37' E 023°47'1312.2
2014-Oct-18 02:31N 37°25' E 023°53'1111.5
2014-Oct-18 01:33N 37°14' E 023°57'1212.2
2014-Oct-18 00:33N 37°03' E 024°01'1313.0
2014-Oct-17 23:33N 36°50' E 024°07'1212.4
2014-Oct-17 22:34N 36°38' E 024°11'1212.1
2014-Oct-17 21:34N 36°30' E 024°22'1211.7
2014-Oct-17 20:33N 36°24' E 024°35'1111.2
2014-Oct-17 19:33N 36°18' E 024°46'1111.3
2014-Oct-17 18:34N 36°12' E 024°58'1111.2
2014-Oct-17 17:33N 36°07' E 025°10'1111.2
2014-Oct-17 16:33N 36°00' E 025°22'1111.5
2014-Oct-17 15:33N 35°54' E 025°34'1211.9
2014-Oct-17 14:32N 35°48' E 025°46'1212.4
2014-Oct-17 13:33N 35°41' E 025°59'1612.2
2014-Oct-17 12:16N 35°32' E 026°15'811.6
2014-Oct-17 11:33N 35°28' E 026°24'1211.6
2014-Oct-17 10:33N 35°20' E 026°34'1212.3
2014-Oct-17 09:33N 35°09' E 026°41'1312.8
2014-Oct-17 08:33N 34°58' E 026°49'1312.6
2014-Oct-17 07:33N 34°47' E 026°57'  
Track history (hours):
 
Tides and Currents Weather Stations Pressure Air Temp Water Temp Dewpoint Dewpoint Depression Visibility Wind Speed Wind Dir Waves Ship Positions

Ce_breeze

Last reported at 2014-Oct-24 15:33 UTC. Time now 2014-Nov-01 08:54 UTC.
Position N 34°28' E 033°31'.

Length 240 m; draft 8 m.

Type: Tanker. MMSI: 636010400.

Date/timePositionNaut miles runAvg speedWind from/ knotsBaromVisibWave heightAir tempDewpointWater temp
2014-Oct-24 15:33N 34°28' E 033°31'  
2014-Oct-21 05:11N 35°40' E 026°00'812.7
2014-Oct-21 04:33N 35°45' E 025°52'1312.9
2014-Oct-21 03:33N 35°51' E 025°38'1313.1
2014-Oct-21 02:33N 35°59' E 025°24'1313.0
2014-Oct-21 01:33N 36°06' E 025°11'1313.3
2014-Oct-21 00:33N 36°13' E 024°57'1413.5
2014-Oct-20 23:33N 36°20' E 024°43'1313.4
2014-Oct-20 22:33N 36°27' E 024°29'1312.8
2014-Oct-20 21:33N 36°34' E 024°15'1313.0
2014-Oct-20 20:33N 36°46' E 024°09'1313.2
2014-Oct-20 19:33N 36°58' E 024°02'3213.0
2014-Oct-20 17:07N 37°27' E 023°49'713.1
2014-Oct-20 16:33N 37°34' E 023°44'1211.8
2014-Oct-20 15:33N 37°45' E 023°39'8 8.0
2014-Oct-20 14:33N 37°50' E 023°31'0 0.3
2014-Oct-20 13:32N 37°50' E 023°31'0 0.0
2014-Oct-20 12:32N 37°50' E 023°31'0 0.0
2014-Oct-20 11:32N 37°50' E 023°31'0 0.0
2014-Oct-20 10:32N 37°50' E 023°31'0 0.2
2014-Oct-20 09:32N 37°50' E 023°31'0 0.5
2014-Oct-20 08:33N 37°50' E 023°31'5 5.4
2014-Oct-20 07:33N 37°54' E 023°36'7 7.2
2014-Oct-20 06:33N 38°01' E 023°34'2 1.6
2014-Oct-20 05:32N 38°01' E 023°36'0 0.0
2014-Oct-20 04:29N 38°01' E 023°36'0 0.0
2014-Oct-20 03:32N 38°01' E 023°36'0 0.0
2014-Oct-20 02:32N 38°01' E 023°36'0 0.0
2014-Oct-20 01:32N 38°01' E 023°36'0 0.0
2014-Oct-20 00:29N 38°01' E 023°36'0 0.0
2014-Oct-19 23:32N 38°01' E 023°36'0 0.0
2014-Oct-19 22:32N 38°01' E 023°36'0 0.0
2014-Oct-19 21:32N 38°01' E 023°36'0 0.0
2014-Oct-19 20:32N 38°01' E 023°36'0 0.0
2014-Oct-19 19:32N 38°01' E 023°36'0 0.0
2014-Oct-19 18:32N 38°01' E 023°36'0 0.0
2014-Oct-19 17:32N 38°01' E 023°36'0 0.0
2014-Oct-19 16:32N 38°01' E 023°36'0 0.0
2014-Oct-19 15:29N 38°01' E 023°36'0 0.0
2014-Oct-19 14:32N 38°01' E 023°36'0 0.0
2014-Oct-19 13:32N 38°01' E 023°36'0 0.0
2014-Oct-19 12:32N 38°01' E 023°36'0 0.0
2014-Oct-19 11:32N 38°01' E 023°36'0 0.0
2014-Oct-19 10:32N 38°01' E 023°36'0 0.0
2014-Oct-19 09:32N 38°01' E 023°36'0 0.0
2014-Oct-19 08:29N 38°01' E 023°36'0 0.0
2014-Oct-19 07:29N 38°01' E 023°36'0 0.0
2014-Oct-19 06:32N 38°01' E 023°36'0 0.0
2014-Oct-19 05:32N 38°01' E 023°36'0 0.0
2014-Oct-19 04:32N 38°01' E 023°36'0 0.0
2014-Oct-19 03:32N 38°01' E 023°36'0 0.0
2014-Oct-19 02:32N 38°01' E 023°36'0 0.0
2014-Oct-19 01:32N 38°01' E 023°36'0 0.0
2014-Oct-19 00:26N 38°01' E 023°36'0 0.0
2014-Oct-18 23:32N 38°01' E 023°36'0 0.0
2014-Oct-18 22:32N 38°01' E 023°36'0 0.0
2014-Oct-18 21:32N 38°01' E 023°36'0 0.0
2014-Oct-18 20:26N 38°01' E 023°36'0 0.0
2014-Oct-18 19:32N 38°01' E 023°36'0 0.0
2014-Oct-18 18:32N 38°01' E 023°36'0 0.0
2014-Oct-18 17:29N 38°01' E 023°36'0 0.0
2014-Oct-18 16:32N 38°01' E 023°36'0 0.0
2014-Oct-18 15:32N 38°01' E 023°36'0 0.0
2014-Oct-18 14:32N 38°01' E 023°36'0 0.0
2014-Oct-18 13:32N 38°01' E 023°36'0 0.0
2014-Oct-18 12:32N 38°01' E 023°36'0 0.0
2014-Oct-18 11:32N 38°01' E 023°36'0 0.0
2014-Oct-18 10:32N 38°01' E 023°36'0 0.0
2014-Oct-18 09:34N 38°01' E 023°36'0 0.2
2014-Oct-18 08:34N 38°01' E 023°35'4 4.1
2014-Oct-18 07:34N 37°58' E 023°33'6 5.6
2014-Oct-18 06:34N 37°54' E 023°38'2 2.1
2014-Oct-18 05:34N 37°52' E 023°39'7 7.4
2014-Oct-18 04:34N 37°45' E 023°42'10 9.5
2014-Oct-18 03:33N 37°37' E 023°47'1312.2
2014-Oct-18 02:31N 37°25' E 023°53'1111.5
2014-Oct-18 01:33N 37°14' E 023°57'1212.2
2014-Oct-18 00:33N 37°03' E 024°01'1313.0
2014-Oct-17 23:33N 36°50' E 024°07'1212.4
2014-Oct-17 22:34N 36°38' E 024°11'1212.1
2014-Oct-17 21:34N 36°30' E 024°22'1211.7
2014-Oct-17 20:33N 36°24' E 024°35'1111.2
2014-Oct-17 19:33N 36°18' E 024°46'1111.3
2014-Oct-17 18:34N 36°12' E 024°58'1111.2
2014-Oct-17 17:33N 36°07' E 025°10'1111.2
2014-Oct-17 16:33N 36°00' E 025°22'1111.5
2014-Oct-17 15:33N 35°54' E 025°34'1211.9
2014-Oct-17 14:32N 35°48' E 025°46'1212.4
2014-Oct-17 13:33N 35°41' E 025°59'1612.2
2014-Oct-17 12:16N 35°32' E 026°15'811.6
2014-Oct-17 11:33N 35°28' E 026°24'1211.6
2014-Oct-17 10:33N 35°20' E 026°34'1212.3
2014-Oct-17 09:33N 35°09' E 026°41'1312.8
2014-Oct-17 08:33N 34°58' E 026°49'1312.6
2014-Oct-17 07:33N 34°47' E 026°57'  

Dump ship's entire track history